Sunday, May 27, 2018, 3:17 PM GMT
Back to Local

CWTY, Trois Rivieres

Location: , , Canada Lat: 46.35
Local Time: 3:17 PM GMT (15:17 GMT) Lon: -72.517
Time Zone: GMT Elev: 19 ft

Show me the last for .
Show Coded

Time T Td Feel RH Dir Speed Gust Alt SLP Vis Weather Sky Remarks
2018-05-27 15:00 62 42 - 48 50° 7 - - 30.10 0 None
2018-05-27 14:00 59 38 - 46 40° 9 - - 30.11 0 None
2018-05-27 13:00 56 41 - 56 50° 9 - - 30.11 0 Peak wind: 20 mph (18 kts) from 60° at 03 min
2018-05-27 12:00 53 40 - 60 60° 15 22 - 30.10 0 Peak wind: 21 mph (19 kts) from 60° at 55 min
2018-05-27 11:00 53 39 - 59 50° 15 21 - 30.10 0 Peak wind: 23 mph (20 kts) from 70° at 30 min
2018-05-27 10:00 52 39 - 59 40° 10 20 - 30.09 0 Peak wind: 21 mph (19 kts) from 60° at 10 min
2018-05-27 09:00 53 40 - 62 40° 8 18 - 30.09 0 Peak wind: 20 mph (18 kts) from 70° at 48 min
2018-05-27 08:00 53 41 - 63 50° 9 18 - 30.08 0 Peak wind: 21 mph (19 kts) from 50° at 21 min
2018-05-27 07:00 54 42 - 62 50° 12 22 - 30.07 0 Peak wind: 21 mph (19 kts) from 70° at 58 min
2018-05-27 06:00 54 40 - 57 40° 7 17 - 30.06 0 Peak wind: 19 mph (17 kts) from 30° at 25 min
2018-05-27 05:00 55 38 - 52 40° 8 - - 30.06 0 Peak wind: 19 mph (17 kts) from 70° at 07 min
2018-05-27 04:00 56 43 - 60 50° 12 - - 30.04 0 None
2018-05-27 03:00 58 42 - 55 30° 7 - - 30.02 0 None
2018-05-27 02:00 58 44 - 58 40° 8 - - 30.00 0 None
2018-05-27 01:00 62 45 - 54 10° 7 - - 29.97 0 None
2018-05-27 00:00 68 28 - 22 350° 5 - - 29.93 0 None
2018-05-26 23:00 70 26 - 19 10° 3 - - 29.91 0 None
2018-05-26 22:00 70 28 - 20 360° 7 - - 29.89 0 None
2018-05-26 21:00 71 27 - 18 360° 8 - - 29.88 0 None
2018-05-26 20:00 71 29 - 20 10° 7 - - 29.85 0 None
2018-05-26 19:00 71 30 - 21 50° 6 - - 29.83 0 None
2018-05-26 18:00 69 30 - 22 30° 8 - - 29.82 0 None
2018-05-26 17:00 67 35 - 29 10° 8 - - 29.81 0 None
2018-05-26 16:00 64 42 - 45 20° 5 - - 29.81 0 None

Support USWX by starting your Amazon purchase here.